Time;durP1;ratioP1;P1;durP2;ratioP2;P2;SDS_P1;SDS_P2;PMS_P1;PMS_P2;Temp;Humidity;BMP_temperature;BMP_pressure;BME280_temperature;BME280_humidity;BME280_pressure;Samples;Min_cycle;Max_cycle;Signal;HPM_P1;HPM_P2
2024/04/08 00:01:56;;;;;;;8.90;3.42;;;;;;;16.08;74.20;98322.19;4986560;28;20037;-86
2024/04/08 00:04:21;;;;;;;12.10;3.25;;;;;;;16.21;73.90;98335.66;5004739;28;20030;-85
2024/04/08 00:06:46;;;;;;;9.82;3.10;;;;;;;16.08;74.95;98325.69;4986782;28;20041;-84
2024/04/08 00:09:12;;;;;;;9.90;3.08;;;;;;;15.79;74.54;98284.75;4984193;28;20121;-86
2024/04/08 00:11:37;;;;;;;7.85;3.53;;;;;;;16.15;74.79;98336.06;4973749;28;20109;-86
2024/04/08 00:14:02;;;;;;;8.90;3.22;;;;;;;15.86;74.58;98279.00;4985858;28;20037;-86
2024/04/08 00:16:29;;;;;;;11.73;3.72;;;;;;;16.23;74.83;98338.06;4994135;28;20038;-86
2024/04/08 00:18:54;;;;;;;11.90;3.67;;;;;;;16.09;74.91;98326.47;5007982;28;20442;-86
2024/04/08 00:21:20;;;;;;;7.63;3.05;;;;;;;16.09;75.00;98326.47;4996272;28;20068;-87
2024/04/08 00:23:45;;;;;;;10.10;3.50;;;;;;;16.18;74.73;98327.41;4988974;28;20037;-85
2024/04/08 00:26:11;;;;;;;13.73;3.03;;;;;;;15.91;74.82;98293.16;5003666;28;20034;-86
2024/04/08 00:28:39;;;;;;;8.85;3.28;;;;;;;15.78;76.58;98320.81;5001257;28;20120;-85
2024/04/08 00:31:06;;;;;;;10.30;3.25;;;;;;;16.00;75.35;98323.69;5005188;28;20418;-85
2024/04/08 00:33:33;;;;;;;9.40;3.55;;;;;;;15.16;79.82;98280.91;4985417;28;20072;-85
2024/04/08 00:35:58;;;;;;;12.65;3.60;;;;;;;14.60;83.29;98292.41;4970681;28;20125;-85
2024/04/08 00:38:24;;;;;;;5.38;3.35;;;;;;;14.74;84.52;98328.22;5004902;28;20101;-85
2024/04/08 00:40:50;;;;;;;11.50;3.08;;;;;;;15.54;78.23;98320.94;4984101;28;20049;-85
2024/04/08 00:43:15;;;;;;;13.15;4.63;;;;;;;15.05;80.50;98300.97;4985824;28;20040;-85
2024/04/08 00:45:42;;;;;;;9.93;3.92;;;;;;;15.24;79.95;98323.25;4972151;28;20057;-85
2024/04/08 00:48:09;;;;;;;15.23;4.70;;;;;;;15.03;79.83;98277.84;5003227;28;20037;-84
2024/04/08 00:50:35;;;;;;;9.68;4.05;;;;;;;15.57;77.90;98308.81;5003168;28;20549;-85
2024/04/08 00:53:01;;;;;;;13.27;4.25;;;;;;;14.77;81.54;98273.13;4986636;28;20138;-85
2024/04/08 00:55:28;;;;;;;9.30;3.75;;;;;;;14.24;82.39;98219.50;4985022;28;20054;-85
2024/04/08 00:57:56;;;;;;;12.07;5.70;;;;;;;14.71;82.21;98293.06;5004902;28;20497;-85
2024/04/08 01:00:21;;;;;;;11.75;3.97;;;;;;;15.20;79.30;98300.75;4984248;28;20030;-85
2024/04/08 01:02:47;;;;;;;10.40;4.72;;;;;;;15.35;78.77;98295.13;4985957;28;20042;-86
2024/04/08 01:05:14;;;;;;;9.77;3.60;;;;;;;15.34;77.04;98256.69;5002983;28;20057;-85
2024/04/08 01:07:44;;;;;;;8.25;3.70;;;;;;;15.75;75.00;98270.28;4970005;28;20477;-86
2024/04/08 01:10:10;;;;;;;13.50;4.13;;;;;;;15.94;74.93;98303.34;4987814;28;20537;-86
2024/04/08 01:12:36;;;;;;;11.43;5.00;;;;;;;15.05;78.07;98282.16;5004355;28;20068;-85
2024/04/08 01:15:02;;;;;;;9.23;3.13;;;;;;;15.57;76.75;98295.34;5001274;28;20037;-86
2024/04/08 01:17:27;;;;;;;8.60;3.47;;;;;;;15.69;75.48;98279.53;5004872;28;20045;-86
2024/04/08 01:19:53;;;;;;;12.77;3.80;;;;;;;15.30;75.05;98195.72;4956265;28;20025;-86
2024/04/08 01:22:18;;;;;;;12.40;3.53;;;;;;;15.88;74.84;98288.34;4985519;28;20030;-86
2024/04/08 01:24:43;;;;;;;10.57;3.63;;;;;;;15.86;74.42;98271.69;4985035;28;20132;-85
2024/04/08 01:27:09;;;;;;;11.80;3.88;;;;;;;15.90;74.97;98288.06;4982847;28;20129;-86
2024/04/08 01:29:35;;;;;;;10.98;4.45;;;;;;;15.79;75.08;98300.91;4986977;28;20053;-86
2024/04/08 01:32:02;;;;;;;14.05;3.60;;;;;;;15.57;75.56;98255.00;5002928;28;20038;-86
2024/04/08 01:34:27;;;;;;;11.73;3.42;;;;;;;15.78;75.76;98288.53;4986058;28;20030;-85
2024/04/08 01:36:53;;;;;;;12.88;4.65;;;;;;;15.73;75.54;98291.31;5003544;28;20125;-85
2024/04/08 01:39:18;;;;;;;7.55;4.50;;;;;;;15.37;77.16;98274.94;4986540;28;20132;-86
2024/04/08 01:41:44;;;;;;;10.90;4.88;;;;;;;15.08;79.16;98271.59;4985010;28;20475;-85
2024/04/08 01:44:09;;;;;;;15.32;3.72;;;;;;;14.81;81.14;98269.56;5000950;28;20368;-86
2024/04/08 01:46:34;;;;;;;9.68;3.72;;;;;;;14.53;81.62;98259.72;4999418;28;20038;-84
2024/04/08 01:49:00;;;;;;;16.98;4.50;;;;;;;14.18;82.47;98236.75;4984993;28;20485;-84
2024/04/08 01:51:25;;;;;;;10.68;3.97;;;;;;;14.46;82.25;98256.59;4978347;28;20417;-85
2024/04/08 01:53:50;;;;;;;9.55;4.22;;;;;;;14.49;81.08;98231.06;4969992;28;20045;-85
2024/04/08 01:56:16;;;;;;;11.05;3.75;;;;;;;14.58;80.80;98256.97;4987031;28;20367;-84
2024/04/08 01:58:41;;;;;;;10.60;4.25;;;;;;;14.26;82.42;98260.28;4986688;28;20038;-84
2024/04/08 02:01:07;;;;;;;13.23;4.80;;;;;;;14.17;83.58;98253.97;5005120;28;20030;-84
2024/04/08 02:03:32;;;;;;;12.40;4.25;;;;;;;13.58;83.84;98170.38;4970530;28;20136;-85
2024/04/08 02:05:57;;;;;;;13.65;3.80;;;;;;;14.93;79.65;98266.44;4987380;28;20100;-85
2024/04/08 02:08:23;;;;;;;12.07;3.75;;;;;;;14.98;77.86;98236.81;4988939;28;20053;-84
2024/04/08 02:10:49;;;;;;;12.75;3.80;;;;;;;15.47;76.75;98293.63;4990587;28;20118;-84
2024/04/08 02:13:14;;;;;;;11.90;3.85;;;;;;;15.24;77.52;98291.81;4996440;28;20033;-85
2024/04/08 02:15:41;;;;;;;6.85;3.17;;;;;;;15.45;76.27;98314.63;5018585;28;20033;-85
2024/04/08 02:18:07;;;;;;;18.92;4.45;;;;;;;15.25;77.13;98322.97;4999648;28;20026;-85
2024/04/08 02:20:37;;;;;;;6.85;3.10;;;;;;;15.03;77.50;98310.09;4980141;28;20034;-85
2024/04/08 02:23:02;;;;;;;8.77;3.78;;;;;;;15.05;78.19;98338.59;5005781;28;20073;-85
2024/04/08 02:25:27;;;;;;;10.73;3.92;;;;;;;15.09;78.53;98367.28;4965593;28;20053;-85
2024/04/08 02:27:53;;;;;;;13.10;3.42;;;;;;;15.30;77.55;98379.38;4991717;28;20046;-85
2024/04/08 02:30:18;;;;;;;12.05;4.10;;;;;;;14.84;80.29;98381.03;5015140;28;20125;-85
2024/04/08 02:32:43;;;;;;;9.88;4.90;;;;;;;14.62;81.54;98370.00;4982828;28;20029;-85
2024/04/08 02:35:09;;;;;;;10.52;3.70;;;;;;;14.32;81.80;98338.94;4964690;28;20041;-84
2024/04/08 02:37:34;;;;;;;10.82;4.22;;;;;;;14.42;81.91;98343.38;4976229;28;20025;-84
2024/04/08 02:39:59;;;;;;;12.43;3.88;;;;;;;14.49;82.06;98371.50;4990489;28;20042;-86
2024/04/08 02:42:25;;;;;;;11.95;4.45;;;;;;;14.32;82.10;98359.59;5014903;28;20026;-85
2024/04/08 02:44:50;;;;;;;9.98;4.55;;;;;;;15.12;79.10;98400.84;5001069;28;20034;-85
2024/04/08 02:47:15;;;;;;;26.33;4.82;;;;;;;14.53;81.88;98415.50;5011904;28;20030;-84
2024/04/08 02:49:41;;;;;;;8.77;4.22;;;;;;;14.39;83.02;98411.88;4995751;28;20042;-85
2024/04/08 02:52:06;;;;;;;14.98;5.50;;;;;;;13.78;86.41;98375.91;4997221;28;20034;-85
2024/04/08 02:54:31;;;;;;;13.15;5.15;;;;;;;13.66;87.81;98399.56;5011230;28;20477;-84
2024/04/08 02:56:57;;;;;;;9.27;4.13;;;;;;;12.84;88.20;98277.88;5011792;28;20033;-85
2024/04/08 02:59:23;;;;;;;20.50;4.43;;;;;;;13.31;89.29;98357.72;5004739;28;20096;-85
2024/04/08 03:01:49;;;;;;;8.95;4.32;;;;;;;13.01;89.86;98318.47;4971996;28;20033;-84
2024/04/08 03:04:14;;;;;;;7.82;3.67;;;;;;;13.22;90.41;98343.28;4993611;28;20038;-85
2024/04/08 03:06:39;;;;;;;18.02;4.53;;;;;;;13.02;90.53;98312.03;5014592;28;20037;-85
2024/04/08 03:09:05;;;;;;;6.00;4.10;;;;;;;13.07;91.20;98322.75;4993018;28;20044;-84
2024/04/08 03:11:31;;;;;;;7.82;4.10;;;;;;;12.92;91.76;98295.22;5013740;28;20026;-85
2024/04/08 03:13:56;;;;;;;10.75;3.72;;;;;;;12.79;92.58;98288.59;4980141;28;20116;-84
2024/04/08 03:16:21;;;;;;;8.05;3.90;;;;;;;12.85;92.51;98311.59;4975251;28;20030;-84
2024/04/08 03:18:47;;;;;;;6.60;3.55;;;;;;;12.91;92.46;98318.53;4989775;28;20473;-85
2024/04/08 03:21:12;;;;;;;10.70;4.10;;;;;;;13.12;91.77;98322.75;4976522;28;20080;-85
2024/04/08 03:23:37;;;;;;;13.02;3.97;;;;;;;13.09;90.38;98309.88;5010859;28;20500;-85
2024/04/08 03:26:06;;;;;;;97.72;13.57;;;;;;;12.75;93.80;98333.09;4995901;28;20102;-86
2024/04/08 03:28:31;;;;;;;7.20;3.60;;;;;;;13.27;90.39;98329.88;5011860;28;20026;-85
2024/04/08 03:30:57;;;;;;;19.27;4.97;;;;;;;12.21;96.98;98287.50;5014109;28;20033;-86
2024/04/08 03:33:25;;;;;;;5.60;3.17;;;;;;;12.33;100.00;98293.34;4980305;28;20504;-86
2024/04/08 03:35:51;;;;;;;10.27;3.63;;;;;;;12.59;98.96;98310.13;5016024;28;20041;-86
2024/04/08 03:38:17;;;;;;;11.35;4.20;;;;;;;13.43;86.55;98238.31;4991685;28;20500;-86
2024/04/08 03:40:43;;;;;;;11.20;4.20;;;;;;;13.61;85.75;98262.88;4977853;28;20025;-86
2024/04/08 03:43:09;;;;;;;10.77;3.78;;;;;;;12.84;95.01;98304.66;4996767;28;20022;-86
2024/04/08 03:45:35;;;;;;;9.55;4.32;;;;;;;12.57;97.76;98309.59;4973895;28;20370;-86
2024/04/08 03:48:01;;;;;;;14.77;4.82;;;;;;;12.43;98.21;98312.03;5014975;28;20092;-86
2024/04/08 03:50:30;;;;;;;12.57;4.00;;;;;;;12.55;96.08;98290.31;5010257;28;20433;-86
2024/04/08 03:52:57;;;;;;;10.45;4.25;;;;;;;12.87;95.83;98330.88;4993882;28;20596;-86
2024/04/08 03:55:26;;;;;;;11.70;4.45;;;;;;;12.97;91.93;98313.94;4994315;28;20026;-87
2024/04/08 03:57:52;;;;;;;6.90;3.67;;;;;;;12.99;93.75;98339.41;4974218;28;20029;-87
2024/04/08 04:00:17;;;;;;;7.78;3.30;;;;;;;12.79;96.05;98364.41;4998459;28;20092;-86
2024/04/08 04:02:42;;;;;;;12.77;5.43;;;;;;;12.64;98.20;98358.28;4986393;28;20445;-87
2024/04/08 04:05:08;;;;;;;7.78;3.90;;;;;;;13.48;90.93;98375.03;4986285;28;20390;-87
2024/04/08 04:07:33;;;;;;;16.50;6.50;;;;;;;12.44;98.01;98385.13;4989356;28;20108;-87
2024/04/08 04:10:04;;;;;;;13.00;7.00;;;;;;;12.40;100.00;98405.47;4986329;28;20029;-87
2024/04/08 04:12:34;;;;;;;8.32;4.65;;;;;;;13.72;89.20;98415.34;4987500;28;20104;-87
2024/04/08 04:15:07;;;;;;;9.95;7.22;;;;;;;12.32;100.00;98376.59;4989983;28;20026;-87
2024/04/08 04:17:33;;;;;;;13.05;7.45;;;;;;;11.96;100.00;98336.53;4975078;28;20048;-87
2024/04/08 04:19:58;;;;;;;13.27;4.82;;;;;;;12.85;96.36;98333.03;4977088;28;20037;-87
2024/04/08 04:22:24;;;;;;;9.02;4.07;;;;;;;13.89;87.93;98399.66;4998943;28;20749;-87
2024/04/08 04:24:50;;;;;;;13.77;4.57;;;;;;;13.69;88.35;98415.13;4989078;28;21446;-88
2024/04/08 04:27:15;;;;;;;8.20;6.00;;;;;;;13.41;89.77;98379.91;4990152;28;20026;-88
2024/04/08 04:29:40;;;;;;;11.05;6.35;;;;;;;12.90;97.50;98389.25;4973138;28;20537;-88
2024/04/08 04:32:07;;;;;;;14.50;6.57;;;;;;;12.74;100.00;98372.44;4990112;28;20029;-88
2024/04/08 04:34:32;;;;;;;14.77;7.82;;;;;;;11.85;100.00;98232.50;5001325;28;20030;-88
2024/04/08 04:36:58;;;;;;;15.63;8.07;;;;;;;12.22;100.00;98317.72;4982027;28;20389;-88
2024/04/08 04:39:23;;;;;;;13.65;7.20;;;;;;;12.91;97.41;98277.56;4962434;28;20034;-88
2024/04/08 04:41:52;;;;;;;17.10;8.77;;;;;;;12.04;100.00;98239.66;4979884;28;21541;-87
2024/04/08 04:44:18;;;;;;;13.85;9.50;;;;;;;11.93;100.00;98208.69;4987813;28;20103;-87
2024/04/08 04:46:43;;;;;;;15.23;9.48;;;;;;;11.63;100.00;98165.16;4967998;28;20029;-87
2024/04/08 04:49:09;;;;;;;14.80;5.43;;;;;;;13.41;92.66;98261.94;4986656;28;20557;-89
2024/04/08 04:51:34;;;;;;;13.55;4.85;;;;;;;13.25;91.05;98230.19;4990179;28;20049;-88
2024/04/08 04:54:00;;;;;;;7.57;4.25;;;;;;;13.57;86.00;98176.81;4975458;28;20087;-88
2024/04/08 04:56:25;;;;;;;11.95;5.03;;;;;;;14.09;86.33;98267.19;4971990;28;20057;-88
2024/04/08 04:58:51;;;;;;;12.23;5.00;;;;;;;13.77;83.87;98175.78;5001157;28;20064;-88
2024/04/08 05:01:16;;;;;;;12.15;6.57;;;;;;;13.92;88.01;98223.91;4986328;28;20050;-88
2024/04/08 05:03:41;;;;;;;11.93;6.93;;;;;;;14.39;88.56;98264.22;4974019;28;20061;-87
2024/04/08 05:06:07;;;;;;;13.02;7.25;;;;;;;14.21;90.14;98270.28;5011989;28;20037;-86
2024/04/08 05:08:32;;;;;;;13.77;7.32;;;;;;;14.28;89.48;98279.59;4984884;28;20061;-85
2024/04/08 05:10:57;;;;;;;13.93;5.97;;;;;;;14.16;89.28;98247.00;4974207;28;20037;-85
2024/04/08 05:13:24;;;;;;;12.63;6.13;;;;;;;14.09;88.73;98243.84;4992770;28;20543;-85
2024/04/08 05:16:00;;;;;;;11.73;7.05;;;;;;;12.87;96.66;98186.22;4988703;28;20042;-85
2024/04/08 05:18:26;;;;;;;19.70;6.85;;;;;;;13.90;91.61;98226.88;4992557;28;20117;-84
2024/04/08 05:20:52;;;;;;;17.13;7.32;;;;;;;13.55;91.97;98213.84;4963256;28;20046;-84
2024/04/08 05:23:20;;;;;;;12.95;7.95;;;;;;;12.79;99.99;98168.91;4992792;28;20034;-84
2024/04/08 05:25:46;;;;;;;12.65;5.72;;;;;;;13.80;91.80;98185.97;5011490;28;20021;-84
2024/04/08 05:28:11;;;;;;;18.40;8.15;;;;;;;13.60;91.18;98168.22;4957643;28;20036;-84
2024/04/08 05:30:36;;;;;;;11.27;5.70;;;;;;;13.84;90.83;98171.69;4990079;28;20052;-85
2024/04/08 05:33:02;;;;;;;16.42;7.35;;;;;;;13.90;88.44;98183.97;5007109;28;20060;-85
2024/04/08 05:35:28;;;;;;;9.45;4.90;;;;;;;14.44;85.54;98188.94;4962829;28;20041;-84
2024/04/08 05:37:53;;;;;;;9.55;5.63;;;;;;;14.28;84.50;98144.59;4994196;28;20040;-85
2024/04/08 05:40:19;;;;;;;11.43;5.53;;;;;;;14.49;84.12;98161.22;4991661;28;20482;-85
2024/04/08 05:42:46;;;;;;;15.75;5.30;;;;;;;14.59;84.09;98183.38;5015404;28;20108;-85
2024/04/08 05:45:11;;;;;;;9.77;5.18;;;;;;;14.39;84.06;98166.75;4995847;28;20032;-84
2024/04/08 05:47:37;;;;;;;9.13;5.03;;;;;;;14.56;84.07;98181.28;5013551;28;20030;-85
2024/04/08 05:50:04;;;;;;;16.67;4.95;;;;;;;14.57;83.61;98190.13;4976838;28;20038;-85
2024/04/08 05:52:30;;;;;;;12.02;5.18;;;;;;;14.27;84.75;98170.63;4996585;28;20038;-86
2024/04/08 05:54:56;;;;;;;12.32;6.88;;;;;;;13.49;89.79;98158.66;4989503;28;20077;-86
2024/04/08 05:57:21;;;;;;;11.60;4.95;;;;;;;13.82;89.07;98183.78;4985652;28;20038;-85
2024/04/08 05:59:46;;;;;;;9.15;5.90;;;;;;;14.28;85.51;98211.69;4985565;28;20034;-85
2024/04/08 06:02:12;;;;;;;10.38;5.30;;;;;;;13.61;91.04;98190.47;5000273;28;20057;-86
2024/04/08 06:04:37;;;;;;;14.93;6.50;;;;;;;13.64;90.95;98204.09;4968702;28;20510;-86
2024/04/08 06:07:03;;;;;;;12.45;5.68;;;;;;;14.26;86.73;98211.97;5000269;28;20093;-86
2024/04/08 06:09:29;;;;;;;9.02;4.97;;;;;;;13.75;90.30;98194.06;4981753;28;20052;-86
2024/04/08 06:11:55;;;;;;;11.07;5.93;;;;;;;14.26;86.43;98236.13;5003693;28;20053;-86
2024/04/08 06:14:20;;;;;;;11.48;5.22;;;;;;;13.71;94.43;98238.63;5019349;28;20045;-85
2024/04/08 06:16:45;;;;;;;16.92;8.07;;;;;;;13.37;98.83;98228.75;5002105;28;20049;-85
2024/04/08 06:19:11;;;;;;;8.85;4.40;;;;;;;14.22;87.24;98205.56;4986073;28;20041;-86
2024/04/08 06:21:36;;;;;;;10.35;4.32;;;;;;;14.09;87.27;98176.75;4970436;28;20537;-86
2024/04/08 06:24:02;;;;;;;9.93;6.82;;;;;;;14.28;87.25;98223.22;4984166;28;20056;-86
2024/04/08 06:26:27;;;;;;;8.88;5.15;;;;;;;13.90;92.45;98237.63;4997223;28;20378;-87
2024/04/08 06:28:53;;;;;;;12.35;8.27;;;;;;;13.49;98.21;98242.59;5000762;28;20469;-86
2024/04/08 06:31:18;;;;;;;6.85;3.90;;;;;;;14.28;86.70;98230.50;4990405;28;20030;-86
2024/04/08 06:33:43;;;;;;;9.75;6.35;;;;;;;13.87;94.00;98242.78;4993271;28;20049;-86
2024/04/08 06:36:12;;;;;;;16.05;7.28;;;;;;;13.38;96.45;98198.19;4988690;28;20053;-85
2024/04/08 06:38:38;;;;;;;11.13;8.00;;;;;;;13.47;100.00;98250.13;4998098;28;20042;-85
2024/04/08 06:41:04;;;;;;;14.90;7.13;;;;;;;13.95;94.40;98239.44;5018593;28;20037;-86
2024/04/08 06:43:29;;;;;;;12.60;5.25;;;;;;;14.20;89.46;98239.97;5018512;28;20061;-86
2024/04/08 06:45:56;;;;;;;13.65;4.72;;;;;;;14.34;87.21;98215.94;5002007;28;20045;-86
2024/04/08 06:48:21;;;;;;;14.15;6.97;;;;;;;13.86;97.09;98247.31;5002634;28;20036;-86
2024/04/08 06:50:47;;;;;;;8.73;4.82;;;;;;;14.23;91.10;98246.66;5002864;28;20034;-87
2024/04/08 06:53:12;;;;;;;14.93;7.20;;;;;;;13.61;100.00;98238.72;4985019;28;20080;-86
2024/04/08 06:55:38;;;;;;;9.32;5.35;;;;;;;14.40;88.30;98222.03;5001830;28;20038;-86
2024/04/08 06:58:04;;;;;;;11.27;7.15;;;;;;;13.43;99.01;98190.06;4970243;28;20038;-85
2024/04/08 07:00:29;;;;;;;17.27;6.70;;;;;;;13.57;100.00;98218.91;5019387;28;20534;-86
2024/04/08 07:02:55;;;;;;;12.23;5.25;;;;;;;14.17;92.15;98229.00;5018188;28;20044;-86
2024/04/08 07:05:20;;;;;;;13.68;5.50;;;;;;;14.17;89.69;98184.19;4972311;28;20485;-86
2024/04/08 07:07:45;;;;;;;10.82;6.43;;;;;;;13.95;96.40;98220.66;5001759;28;20026;-86
2024/04/08 07:10:11;;;;;;;10.57;6.32;;;;;;;13.67;98.30;98184.78;5002937;28;20076;-86
2024/04/08 07:12:36;;;;;;;12.57;6.95;;;;;;;13.62;99.64;98206.25;4998111;28;20113;-84
2024/04/08 07:15:02;;;;;;;12.32;6.18;;;;;;;13.46;100.00;98192.19;4995348;28;20037;-87
2024/04/08 07:17:27;;;;;;;9.35;6.10;;;;;;;13.49;100.00;98194.34;5008078;28;20101;-87
2024/04/08 07:19:53;;;;;;;12.15;5.93;;;;;;;13.59;99.81;98185.38;4991812;28;20029;-87
2024/04/08 07:22:18;;;;;;;15.35;6.07;;;;;;;13.57;100.00;98200.13;4976059;28;20035;-86
2024/04/08 07:24:44;;;;;;;11.65;4.72;;;;;;;14.28;89.81;98191.00;4996245;28;20046;-86
2024/04/08 07:27:10;;;;;;;8.45;5.90;;;;;;;14.03;96.80;98212.78;4997070;28;20109;-86
2024/04/08 07:29:36;;;;;;;9.95;5.93;;;;;;;13.67;100.00;98200.88;4998428;28;20045;-86
2024/04/08 07:32:01;;;;;;;11.07;6.15;;;;;;;13.68;100.00;98193.59;5013494;28;20026;-86
2024/04/08 07:34:27;;;;;;;11.25;4.07;;;;;;;14.39;88.92;98194.41;5003117;28;20108;-86
2024/04/08 07:36:52;;;;;;;11.95;6.57;;;;;;;14.23;96.04;98211.75;5000186;28;20492;-85
2024/04/08 07:39:18;;;;;;;15.13;6.68;;;;;;;13.80;99.83;98231.56;4997771;28;20037;-86
2024/04/08 07:41:44;;;;;;;12.73;6.85;;;;;;;13.45;100.00;98166.47;4997787;28;20060;-86
2024/04/08 07:44:09;;;;;;;12.82;6.10;;;;;;;13.88;100.00;98247.03;4985369;28;20041;-86
2024/04/08 07:46:35;;;;;;;20.27;7.60;;;;;;;13.94;100.00;98238.66;4987782;28;20095;-86
2024/04/08 07:49:01;;;;;;;16.92;6.50;;;;;;;13.83;99.47;98190.75;4996003;28;20422;-87
2024/04/08 07:51:27;;;;;;;10.68;4.25;;;;;;;14.29;94.51;98210.63;4977710;28;20102;-86
2024/04/08 07:53:53;;;;;;;11.65;6.00;;;;;;;14.12;96.31;98167.34;4996305;28;20037;-87
2024/04/08 07:56:19;;;;;;;10.60;7.10;;;;;;;14.20;100.00;98228.41;4984660;28;20124;-86
2024/04/08 07:58:45;;;;;;;16.70;5.70;;;;;;;14.01;98.12;98182.75;4996815;28;20113;-88
2024/04/08 08:01:11;;;;;;;15.10;4.15;;;;;;;14.63;93.17;98218.53;5007529;28;20113;-88
2024/04/08 08:03:36;;;;;;;8.35;3.97;;;;;;;14.66;93.42;98224.09;4998756;28;20048;-88
2024/04/08 08:06:02;;;;;;;12.90;6.07;;;;;;;14.28;94.18;98140.00;4992054;28;20112;-88
2024/04/08 08:08:27;;;;;;;7.53;3.55;;;;;;;14.79;88.80;98148.16;4994537;28;20030;-86
2024/04/08 08:10:55;;;;;;;10.02;4.00;;;;;;;14.65;88.85;98144.63;5011361;28;20041;-87
2024/04/08 08:13:21;;;;;;;11.82;5.47;;;;;;;15.01;89.09;98180.59;4979496;28;20045;-87
2024/04/08 08:15:54;;;;;;;7.90;5.25;;;;;;;14.71;96.71;98199.06;4995326;28;20034;-86
2024/04/08 08:18:19;;;;;;;13.68;5.15;;;;;;;15.05;93.51;98225.72;4965732;28;20026;-87
2024/04/08 08:20:45;;;;;;;8.73;4.85;;;;;;;15.18;87.85;98176.56;4992068;28;20037;-87
2024/04/08 08:23:10;;;;;;;7.97;4.05;;;;;;;15.05;89.15;98171.94;4975534;28;20128;-87
2024/04/08 08:27:14;;;;;;;8.68;3.50;;;;;;;15.69;87.35;98231.91;5456058;26;20375;-72
2024/04/08 08:29:40;;;;;;;7.97;3.28;;;;;;;15.94;84.84;98233.34;5460957;26;20106;-72
2024/04/08 08:32:06;;;;;;;11.60;4.20;;;;;;;15.90;85.73;98229.63;5428664;26;20420;-72
2024/04/08 08:34:31;;;;;;;10.18;4.78;;;;;;;15.34;93.11;98229.78;5410797;26;19999;-72
2024/04/08 08:36:57;;;;;;;10.38;4.13;;;;;;;15.87;86.03;98232.94;5416110;26;19992;-72
2024/04/08 08:39:22;;;;;;;9.48;5.45;;;;;;;15.38;91.73;98211.16;5416541;26;20067;-72
2024/04/08 08:41:51;;;;;;;6.22;3.38;;;;;;;15.70;88.50;98227.34;5426959;26;20007;-72
2024/04/08 08:44:19;;;;;;;12.65;4.90;;;;;;;15.41;92.40;98238.28;5423347;26;19999;-72
2024/04/08 08:46:45;;;;;;;14.63;4.95;;;;;;;15.36;96.11;98224.09;5394706;26;20317;-73
2024/04/08 08:49:12;;;;;;;14.48;5.15;;;;;;;15.56;92.19;98231.88;5424289;26;19991;-73
2024/04/08 08:51:37;;;;;;;14.32;5.47;;;;;;;15.53;94.27;98211.75;5425058;26;20413;-73
2024/04/08 08:54:03;;;;;;;5.85;3.83;;;;;;;16.25;85.92;98202.03;5419754;26;20015;-73
2024/04/08 08:56:31;;;;;;;9.65;3.60;;;;;;;16.12;87.47;98213.59;5427659;26;20444;-73
2024/04/08 08:58:58;;;;;;;11.05;5.65;;;;;;;15.94;90.46;98211.00;5436239;26;19999;-73
2024/04/08 09:01:23;;;;;;;15.85;4.85;;;;;;;15.67;91.64;98188.38;5426638;26;20598;-73
2024/04/08 09:03:50;;;;;;;9.05;4.95;;;;;;;15.79;91.30;98205.91;5429698;26;20005;-73
2024/04/08 09:06:16;;;;;;;7.78;3.80;;;;;;;16.30;87.85;98198.44;5427426;26;20698;-73
2024/04/08 09:08:41;;;;;;;10.40;4.15;;;;;;;16.19;90.46;98192.47;5420010;26;20014;-73
2024/04/08 09:11:07;;;;;;;11.32;4.63;;;;;;;16.21;91.32;98171.41;5421178;26;20015;-73
2024/04/08 09:13:33;;;;;;;12.95;4.38;;;;;;;16.20;91.63;98195.97;5426239;26;19995;-73
2024/04/08 09:15:59;;;;;;;17.13;4.13;;;;;;;16.35;88.89;98182.97;5444712;26;20009;-73
2024/04/08 09:18:24;;;;;;;8.77;4.57;;;;;;;16.22;91.57;98180.28;5420611;26;20000;-73
2024/04/08 09:20:50;;;;;;;12.40;4.93;;;;;;;16.32;89.32;98180.88;5421141;26;20483;-73
2024/04/08 09:23:16;;;;;;;11.95;4.50;;;;;;;16.40;91.41;98174.75;5417163;26;19999;-76
2024/04/08 09:25:41;;;;;;;18.30;4.88;;;;;;;16.60;89.32;98170.84;5427572;26;19999;-73
2024/04/08 09:28:09;;;;;;;13.82;5.00;;;;;;;16.58;87.31;98177.69;5417622;26;20011;-73
2024/04/08 09:30:35;;;;;;;9.60;3.83;;;;;;;16.96;87.71;98170.84;5420215;26;20008;-73
2024/04/08 09:33:00;;;;;;;18.65;4.75;;;;;;;16.81;86.66;98165.81;5419968;26;20068;-73
2024/04/08 09:35:26;;;;;;;8.95;3.63;;;;;;;16.94;88.34;98154.19;5419060;26;20524;-73
2024/04/08 09:37:55;;;;;;;7.88;4.00;;;;;;;17.11;88.03;98154.31;5396197;26;20018;-73
2024/04/08 09:40:24;;;;;;;7.28;4.05;;;;;;;17.23;86.40;98168.03;5400271;26;20410;-74
2024/04/08 09:42:51;;;;;;;10.38;4.00;;;;;;;17.17;82.44;98164.66;5412899;26;20000;-73
2024/04/08 09:45:18;;;;;;;10.45;4.38;;;;;;;17.27;83.85;98158.22;5393568;26;20043;-74
2024/04/08 09:47:45;;;;;;;16.80;4.68;;;;;;;17.35;84.42;98154.78;5409390;26;20019;-73
2024/04/08 09:50:12;;;;;;;7.28;3.28;;;;;;;17.63;84.48;98134.63;5400681;26;19999;-73
2024/04/08 09:52:38;;;;;;;13.05;3.90;;;;;;;17.70;83.70;98145.78;5397447;26;20004;-73
2024/04/08 09:55:04;;;;;;;18.63;4.22;;;;;;;17.76;79.07;98147.22;5399661;26;20008;-73
2024/04/08 09:57:37;;;;;;;16.42;4.50;;;;;;;18.10;82.95;98153.84;5387029;26;20015;-73
2024/04/08 10:00:04;;;;;;;13.75;4.05;;;;;;;18.21;82.77;98155.16;5402723;26;20402;-73
2024/04/08 10:02:31;;;;;;;18.40;4.78;;;;;;;18.09;79.89;98152.25;5404491;26;20066;-73
2024/04/08 10:05:02;;;;;;;9.65;3.85;;;;;;;18.08;79.15;98153.38;5396470;26;20037;-73
2024/04/08 10:07:29;;;;;;;15.55;4.38;;;;;;;18.05;78.89;98152.09;5410102;26;20451;-73
2024/04/08 10:09:55;;;;;;;10.30;3.67;;;;;;;18.32;76.98;98145.63;5394036;26;20004;-73
2024/04/08 10:12:30;;;;;;;10.70;4.07;;;;;;;18.26;78.65;98133.41;5389729;26;20015;-73
2024/04/08 10:14:55;;;;;;;15.93;4.47;;;;;;;18.34;77.19;98133.41;5411328;26;20008;-73
2024/04/08 10:17:20;;;;;;;7.15;3.58;;;;;;;18.52;76.92;98135.03;5402926;26;20000;-73
2024/04/08 10:19:46;;;;;;;14.00;4.32;;;;;;;18.60;74.54;98133.44;5394261;26;20030;-73
2024/04/08 10:22:15;;;;;;;7.07;3.50;;;;;;;18.80;79.54;98132.03;5392466;26;20011;-73
2024/04/08 10:24:40;;;;;;;13.15;3.72;;;;;;;18.84;74.13;98124.84;5397384;26;20007;-73
2024/04/08 10:27:07;;;;;;;12.00;3.70;;;;;;;19.06;75.11;98138.19;5401366;26;20069;-73
2024/04/08 10:29:35;;;;;;;11.82;3.42;;;;;;;19.22;77.21;98133.88;5402833;26;20007;-73
2024/04/08 10:32:03;;;;;;;7.70;3.33;;;;;;;19.31;77.52;98134.63;5407505;26;20027;-73
2024/04/08 10:34:28;;;;;;;13.15;3.85;;;;;;;19.38;74.51;98135.78;5405478;26;22272;-73
2024/04/08 10:36:54;;;;;;;11.18;3.97;;;;;;;19.40;74.58;98122.72;5409578;26;19995;-73
2024/04/08 10:39:26;;;;;;;12.82;3.55;;;;;;;19.54;72.52;98129.84;5407552;26;20518;-73
2024/04/08 10:41:57;;;;;;;12.80;4.22;;;;;;;19.34;72.24;98115.88;5407667;26;20008;-73
2024/04/08 10:44:23;;;;;;;5.95;2.85;;;;;;;19.44;70.05;98120.94;5409343;26;20014;-73
2024/04/08 10:46:49;;;;;;;7.63;3.33;;;;;;;19.64;68.32;98124.84;5422985;26;20101;-73
2024/04/08 10:49:14;;;;;;;12.32;3.60;;;;;;;19.72;67.31;98120.53;5391461;26;20006;-73
2024/04/08 10:51:39;;;;;;;9.77;2.83;;;;;;;19.49;68.42;98109.16;5398736;26;20004;-73
2024/04/08 10:54:05;;;;;;;8.10;2.45;;;;;;;19.68;67.09;98112.25;5399958;26;20027;-73
2024/04/08 10:56:30;;;;;;;11.20;4.03;;;;;;;19.78;65.77;98114.63;5403724;26;20000;-73
2024/04/08 10:58:55;;;;;;;10.80;3.13;;;;;;;19.94;65.15;98109.44;5396491;26;20015;-73
2024/04/08 11:01:21;;;;;;;9.93;3.67;;;;;;;20.09;63.79;98103.44;5381249;26;20011;-73
2024/04/08 11:03:47;;;;;;;10.27;2.70;;;;;;;20.04;63.42;98100.94;5386352;26;20020;-73
2024/04/08 11:06:13;;;;;;;13.25;3.60;;;;;;;20.14;62.88;98101.34;5399826;26;20010;-73
2024/04/08 11:08:38;;;;;;;7.45;2.78;;;;;;;20.19;61.08;98113.91;5405749;26;20657;-73
2024/04/08 11:11:05;;;;;;;11.35;2.90;;;;;;;20.23;62.34;98131.13;5396160;26;20404;-78
2024/04/08 11:13:30;;;;;;;9.13;2.88;;;;;;;20.35;61.68;98120.38;5378082;26;20001;-74
2024/04/08 11:15:59;;;;;;;11.13;3.47;;;;;;;20.51;60.90;98128.72;5409393;26;20014;-74
2024/04/08 11:18:25;;;;;;;9.77;3.58;;;;;;;20.71;61.04;98139.56;5380083;26;19996;-73
2024/04/08 11:20:58;;;;;;;9.73;2.88;;;;;;;20.74;60.92;98130.75;5406268;26;19991;-74
2024/04/08 11:23:23;;;;;;;11.80;3.25;;;;;;;20.82;61.87;98137.22;5407768;26;20031;-72